Flight Track Log - Related Links

Times and Time Zones

All times are in EST time to prevent confusion due to time zone crossing. See the EJA922 flight status page for this flight to view local times or setup timezone preferences in your user account.

Time Position Orientation Groundspeed Altitude Reporting Facility
EST Latitude Longitude Course Direction KTS MPH feet Rate Location/Type
Fri 10:48:00 PM 39.0833 -108.4833 169° South 220 253 8,700  Level Denver TRACON
Fri 10:48:55 PM 39.0167 -108.4667 169° South 270 311 11,500 2,685 Climbing Denver TRACON
Fri 10:50:23 PM 39.0444 -108.2658 80° East 418 481 15,100 2,456 Climbing Denver Center
Fri 10:51:24 PM 39.0872 -108.1164 70° East 439 505 17,600 2,439 Climbing Denver Center
Fri 10:52:26 PM 39.1300 -107.9747 69° East 446 513 20,100 2,274 Climbing Denver Center
Fri 10:53:28 PM 39.1792 -107.8033 70° East 456 525 22,300 2,195 Climbing Denver Center
Fri 10:54:29 PM 39.2239 -107.6492 69° East 472 543 24,600 2,098 Climbing Denver Center
Fri 10:55:31 PM 39.2744 -107.4653 70° East 485 558 26,600 2,129 Climbing Denver Center
Fri 10:56:33 PM 39.2947 -107.2981 81° East 491 565 29,000 1,984 Climbing Denver Center
Fri 10:57:35 PM 39.3156 -107.1308 81° East 492 566 30,700 1,317 Climbing Denver Center
Fri 10:58:36 PM 39.3592 -106.9211 75° East 535 616 31,700 1,113 Climbing Denver Center
Fri 10:59:39 PM 39.3967 -106.7400 75° East 544 626 33,000 1,488 Climbing Denver Center
Fri 11:00:41 PM 39.4417 -106.5181 75° East 572 658 34,800 1,707 Climbing Denver Center
Fri 11:01:42 PM 39.4825 -106.3156 75° East 582 670 36,500 2,000 Climbing Denver Center
Fri 11:02:44 PM 39.5225 -106.1153 75° East 572 658 38,900 1,210 Climbing Denver Center
Fri 11:03:46 PM 39.5628 -105.9047 76° East 565 650 39,000 49 Climbing Denver Center
Fri 11:04:47 PM 39.5992 -105.7125 76° East 584 672 39,000 390 Level Denver Center
Fri 11:05:49 PM 39.6383 -105.5033 76° East 594 684 39,800 823 Climbing Denver Center
Fri 11:06:51 PM 39.6867 -105.2542 76° East 594 684 40,700 581 Climbing Denver Center
Fri 11:07:53 PM 39.7258 -105.0425 76° East 594 684 41,000 146 Climbing Denver Center
Fri 11:08:54 PM 39.7661 -104.8242 76° East 607 699 41,000  Level Denver Center
Fri 11:09:56 PM 39.8064 -104.6011 77° East 615 708 41,000  Level Denver Center
Fri 11:10:58 PM 39.8464 -104.3806 77° East 617 710 41,000  Level Denver Center
Fri 11:11:59 PM 39.8853 -104.1614 77° East 618 711 41,000  Level Denver Center
Fri 11:13:01 PM 39.9242 -103.9414 77° East 618 711 41,000  Level Denver Center
Fri 11:14:03 PM 39.9625 -103.7233 77° East 620 713 41,000  Level Denver Center
Fri 11:15:04 PM 39.9997 -103.5042 77° East 620 713 41,000  Level Denver Center
Fri 11:16:06 PM 40.0372 -103.2850 77° East 620 713 41,000  Level Denver Center
Fri 11:17:07 PM 40.0742 -103.0653 78° East 620 713 41,000  Level Denver Center
Fri 11:18:09 PM 40.1169 -102.7994 78° East 621 715 41,000  Level Denver Center
Fri 11:19:11 PM 40.1531 -102.5886 77° East 622 716 41,000  Level Denver Center
Fri 11:20:12 PM 40.1869 -102.3753 78° East 625 719 41,000  Level Denver Center
Fri 11:21:14 PM 40.2269 -102.1278 78° East 624 718 41,000  Level Denver Center
Fri 11:22:15 PM 40.2597 -101.9164 78° East 622 716 41,000  Level Denver Center
Fri 11:23:17 PM 40.2975 -101.6700 79° East 621 715 41,000  Level Denver Center
Fri 11:24:18 PM 40.3306 -101.4586 78° East 621 715 41,000  Level Denver Center
Fri 11:25:20 PM 40.3678 -101.2133 79° East 621 715 41,000  Level Denver Center
Fri 11:26:22 PM 40.3992 -101.0019 79° East 620 713 41,000  Level Denver Center
Fri 11:27:23 PM 40.4350 -100.7569 79° East 620 713 41,000  Level Denver Center
Fri 11:28:25 PM 40.4647 -100.5472 79° East 619 712 41,000  Level Denver Center
Fri 11:29:26 PM 40.4994 -100.3019 79° East 619 712 41,000  Level Denver Center
Fri 11:30:28 PM 40.5297 -100.0917 79° East 617 710 41,000  Level Denver Center
Fri 11:31:29 PM 40.5578 -99.8811 80° East 616 709 41,000  Level Denver Center
Fri 11:32:31 PM 40.5911 -99.6425 80° East 616 709 41,000  Level Denver Center
Fri 11:33:32 PM 40.6214 -99.4236 80° East 613 705 41,000  Level Denver Center
Fri 11:34:12 PM 40.6383 -99.2925 80° East 614 707 41,000  Level Minneapolis Center
Fri 11:35:13 PM 40.6725 -99.0306 80° East 613 705 41,000  Level Minneapolis Center
Fri 11:36:14 PM 40.6997 -98.8153 80° East 610 702 41,000  Level Minneapolis Center
Fri 11:37:15 PM 40.7267 -98.6003 81° East 606 697 41,000  Level Minneapolis Center
Fri 11:38:16 PM 40.7533 -98.3853 81° East 606 697 41,000 295 Level Minneapolis Center
Fri 11:39:17 PM 40.7797 -98.1703 81° East 603 694 41,600 639 Climbing Minneapolis Center
Fri 11:40:18 PM 40.8050 -97.9603 81° East 590 679 42,300 689 Climbing Minneapolis Center
Fri 11:41:19 PM 40.8303 -97.7536 81° East 579 666 43,000 344 Climbing Minneapolis Center
Fri 11:42:20 PM 40.8533 -97.5447 82° East 578 665 43,000  Level Minneapolis Center
Fri 11:43:21 PM 40.8797 -97.3283 81° East 580 667 43,000  Level Minneapolis Center
Fri 11:44:21 PM 40.9039 -97.1142 81° East 587 676 43,000  Level Minneapolis Center
Fri 11:45:22 PM 40.9275 -96.8989 82° East 589 678 43,000  Level Minneapolis Center
Fri 11:46:23 PM 40.9511 -96.6825 82° East 593 682 43,000  Level Minneapolis Center
Fri 11:47:24 PM 40.9783 -96.4247 82° East 594 684 43,000  Level Minneapolis Center
Fri 11:48:25 PM 41.0022 -96.2064 82° East 595 685 43,000  Level Minneapolis Center
Fri 11:49:26 PM 41.0236 -95.9897 82° East 599 689 43,000  Level Minneapolis Center
Fri 11:50:27 PM 41.0453 -95.7731 82° East 600 690 43,000  Level Minneapolis Center
Fri 11:51:28 PM 41.0667 -95.5542 83° East 604 695 43,000  Level Minneapolis Center
Fri 11:52:29 PM 41.0906 -95.3114 82° East 604 695 43,000  Level Minneapolis Center
Fri 11:53:29 PM 41.1108 -95.1131 82° East 605 696 43,000  Level Minneapolis Center
Fri 11:54:30 PM 41.1306 -94.8922 83° East 605 696 43,000  Level Minneapolis Center
Fri 11:55:31 PM 41.1508 -94.6700 83° East 605 696 43,000  Level Minneapolis Center
Fri 11:56:32 PM 41.1700 -94.4467 83° East 606 697 43,000  Level Minneapolis Center
Fri 11:57:33 PM 41.1925 -94.2025 83° East 610 702 43,000  Level Minneapolis Center
Fri 11:58:33 PM 41.2097 -93.9792 84° East 610 702 43,000  Level Minneapolis Center
Fri 11:59:34 PM 41.2294 -93.7528 83° East 613 705 43,000  Level Minneapolis Center
Sat 12:00:35 AM 41.2483 -93.5261 84° East 616 709 43,000  Level Minneapolis Center
Sat 12:01:36 AM 41.2661 -93.2983 84° East 620 713 43,000  Level Minneapolis Center
Sat 12:02:37 AM 41.2833 -93.0708 84° East 620 713 43,000  Level Minneapolis Center
Sat 12:03:37 AM 41.3003 -92.8439 84° East 620 713 43,000  Level Minneapolis Center
Sat 12:04:38 AM 41.3178 -92.6169 84° East 619 712 43,000  Level Minneapolis Center
Sat 12:05:39 AM 41.3336 -92.3894 85° East 619 712 43,000  Level Minneapolis Center
Sat 12:06:39 AM 41.3525 -92.1181 85° East 618 711 43,000  Level Minneapolis Center
Sat 12:07:40 AM 41.3675 -91.8925 85° East 618 711 43,000  Level Minneapolis Center
Sat 12:08:41 AM 41.3803 -91.6914 85° East 618 711 43,000  Level Minneapolis Center
Sat 12:10:07 AM 41.4014 -91.3739 85° East 613 705 43,000  Level Chicago Center
Sat 12:11:08 AM 41.4144 -91.1447 86° East 607 699 43,000  Level Chicago Center
Sat 12:12:08 AM 41.4272 -90.9222 86° East 604 695 43,000  Level Chicago Center
Sat 12:13:09 AM 41.4406 -90.6992 85° East 603 694 43,000  Level Chicago Center
Sat 12:14:09 AM 41.4525 -90.4744 86° East 605 696 43,000  Level Chicago Center
Sat 12:15:10 AM 41.4636 -90.2511 86° East 603 694 43,000  Level Chicago Center
Sat 12:17:11 AM 41.4861 -89.8017 86° East 605 696 43,000  Level Chicago Center
Sat 12:18:11 AM 41.4967 -89.5783 86° East 602 693 43,000  Level Chicago Center
Sat 12:19:12 AM 41.5067 -89.3542 87° East 603 694 43,000  Level Chicago Center
Sat 12:20:12 AM 41.5153 -89.1328 87° East 596 686 43,000  Level Chicago Center
Sat 12:21:13 AM 41.5244 -88.9114 87° East 596 686 43,000  Level Chicago Center
Sat 12:22:13 AM 41.5403 -88.6914 84° East 596 686 43,000  Level Chicago Center
Sat 12:23:14 AM 41.5647 -88.4714 81° East 596 686 43,000  Level Chicago Center
Sat 12:24:14 AM 41.5875 -88.2517 82° East 594 684 43,000  Level Chicago Center
Sat 12:25:15 AM 41.6111 -88.0286 82° East 595 685 43,000  Level Chicago Center
Sat 12:26:15 AM 41.6336 -87.8075 82° East 592 681 43,000  Level Chicago Center
Sat 12:27:16 AM 41.6547 -87.5900 83° East 587 676 43,000  Level Chicago Center
Sat 12:28:16 AM 41.6758 -87.3736 82° East 587 676 43,000  Level Chicago Center
Sat 12:29:16 AM 41.6953 -87.1567 83° East 583 671 43,000  Level Chicago Center
Sat 12:30:17 AM 41.7150 -86.9397 83° East 585 673 43,000  Level Chicago Center
Sat 12:31:17 AM 41.7369 -86.7033 83° East 585 673 43,000  Level Chicago Center
Sat 12:32:18 AM 41.7553 -86.4872 83° East 584 672 43,000  Level Chicago Center
Sat 12:33:18 AM 41.7744 -86.2697 83° East 587 676 43,000  Level Chicago Center
Sat 12:34:18 AM 41.7925 -86.0536 84° East 585 673 43,000  Level Chicago Center
Sat 12:35:19 AM 41.8103 -85.8364 84° East 583 671 43,000  Level Chicago Center
Sat 12:36:19 AM 41.8283 -85.6178 84° East 585 673 43,000  Level Chicago Center
Sat 12:37:19 AM 41.8458 -85.3969 84° East 583 671 43,000  Level Chicago Center
Sat 12:38:20 AM 41.8622 -85.1783 84° East 580 667 43,000  Level Chicago Center
Sat 12:39:20 AM 41.8792 -84.9606 84° East 583 671 43,000  Level Chicago Center
Sat 12:40:20 AM 41.8950 -84.7417 84° East 590 679 43,000  Level Chicago Center
Sat 12:41:21 AM 41.9092 -84.5253 85° East 585 673 43,000  Level Chicago Center
Sat 12:42:21 AM 41.9242 -84.3094 85° East 581 669 43,000  Level Chicago Center
Sat 12:43:21 AM 41.9400 -84.0928 84° East 584 672 43,000  Level Chicago Center
Sat 12:44:21 AM 41.9544 -83.8708 85° East 581 669 43,000  Level Chicago Center
Sat 12:45:28 AM 41.9672 -83.6539 85° East 581 669 43,000  Level Cleveland Center
Sat 12:46:28 AM 41.9800 -83.4461 85° East 579 666 43,000  Level Cleveland Center
Sat 12:47:29 AM 41.9928 -83.2286 85° East 578 665 43,000  Level Cleveland Center
Sat 12:48:29 AM 42.0053 -83.0214 85° East 577 664 43,000  Level Cleveland Center
Sat 12:49:29 AM 42.0167 -82.7939 86° East 577 664 43,000  Level Cleveland Center
Sat 12:50:30 AM 42.0278 -82.5931 86° East 578 665 43,000  Level Cleveland Center
Sat 12:51:30 AM 42.0369 -82.3803 87° East 577 664 43,000  Level Cleveland Center
Sat 12:52:30 AM 42.0519 -82.1217 85° East 578 665 43,000  Level Cleveland Center
Sat 12:53:31 AM 42.0611 -81.9203 86° East 578 665 43,000  Level Cleveland Center
Sat 12:54:31 AM 42.0717 -81.7014 86° East 578 665 43,000  Level Cleveland Center
Sat 12:55:31 AM 42.0819 -81.4808 86° East 579 666 43,000  Level Cleveland Center
Sat 12:56:31 AM 42.0903 -81.2625 87° East 579 666 43,000  Level Cleveland Center
Sat 12:57:32 AM 42.0997 -81.0439 87° East 579 666 43,000  Level Cleveland Center
Sat 12:58:32 AM 42.1081 -80.8256 87° East 578 665 43,000  Level Cleveland Center
Sat 12:59:32 AM 42.1164 -80.6072 87° East 578 665 43,000  Level Cleveland Center
Sat 01:00:32 AM 42.1239 -80.3897 87° East 577 664 43,000  Level Cleveland Center
Sat 01:01:33 AM 42.1303 -80.2083 87° East 577 664 43,000  Level Cleveland Center
Sat 01:02:33 AM 42.1375 -79.9594 88° East 578 665 43,000  Level Cleveland Center
Sat 01:03:33 AM 42.1433 -79.7733 88° East 576 663 43,000  Level Cleveland Center
Sat 01:04:33 AM 42.1481 -79.5597 88° East 575 662 43,000  Level Cleveland Center
Sat 01:05:34 AM 42.1531 -79.3458 88° East 572 658 43,000  Level Cleveland Center
Sat 01:06:34 AM 42.1586 -79.1292 88° East 576 663 43,000  Level Cleveland Center
Sat 01:07:34 AM 42.1625 -78.9142 89° East 576 663 43,000  Level Cleveland Center
Sat 01:08:34 AM 42.1669 -78.6964 88° East 578 665 43,000  Level Cleveland Center
Sat 01:09:34 AM 42.1717 -78.4800 88° East 578 665 43,000  Level Cleveland Center
Sat 01:10:35 AM 42.1753 -78.2639 89° East 577 664 43,000  Level Cleveland Center
Sat 01:11:35 AM 42.1789 -78.0506 89° East 577 664 43,000  Level Cleveland Center
Sat 01:12:35 AM 42.1817 -77.8375 89° East 576 663 43,000  Level Cleveland Center
Sat 01:13:35 AM 42.1842 -77.5819 89° East 577 664 43,000  Level Cleveland Center
Sat 01:14:36 AM 42.1861 -77.3681 89° East 576 663 43,000  Level Cleveland Center
Sat 01:15:36 AM 42.1808 -77.1550 92° East 576 663 43,000  Level Cleveland Center
Sat 01:16:36 AM 42.1311 -76.9519 108° East 577 664 43,000  Level Cleveland Center
Sat 01:17:36 AM 42.0736 -76.7553 111° Southeast 571 657 43,000  Level Cleveland Center
Sat 01:18:36 AM 42.0153 -76.5581 112° Southeast 570 656 43,000 -1,050 Level Cleveland Center
Sat 01:19:36 AM 41.9561 -76.3603 112° Southeast 570 656 40,900 -2,557 Descending Cleveland Center
Sat 01:20:31 AM 41.9025 -76.1806 112° Southeast 571 657 38,100 -3,026 Descending Boston Center
Sat 01:21:31 AM 41.8433 -75.9847 112° Southeast 566 651 35,100 -2,926 Descending Boston Center
Sat 01:22:32 AM 41.7850 -75.7911 112° Southeast 555 639 32,200 -2,926 Descending Boston Center
Sat 01:23:32 AM 41.7253 -75.5950 112° Southeast 562 647 29,200 -2,880 Descending Boston Center
Sat 01:24:37 AM 41.6650 -75.4022 113° Southeast 558 642 26,200 -2,762 Descending New York Center
Sat 01:25:38 AM 41.6103 -75.2233 112° Southeast 523 602 23,400 -2,678 Descending New York Center
Sat 01:26:38 AM 41.5561 -75.0497 113° Southeast 504 580 20,800 -2,750 Descending New York Center
Sat 01:27:38 AM 41.4956 -74.8594 113° Southeast 494 568 17,900 -2,700 Descending New York Center
Sat 01:28:38 AM 41.4472 -74.7047 113° Southeast 452 520 15,400 -1,774 Descending New York Center
Sat 01:29:33 AM 41.4111 -74.5925 113° Southeast 400 460 14,500 -1,409 Descending Boston Center
Sat 01:30:33 AM 41.3736 -74.4747 113° Southeast 351 404 12,700 -1,765 Descending Boston Center
Sat 01:31:15 AM 41.3500 -74.3833 109° East 340 391 11,500 -1,706 Descending New York TRACON
Sat 01:32:15 AM 41.3167 -74.2667 111° Southeast 327 376 9,800 -1,619 Descending New York TRACON
Sat 01:33:21 AM 41.2667 -74.1667 124° Southeast 300 345 8,100 -1,476 Descending New York TRACON
Sat 01:34:21 AM 41.2500 -74.0667 102° East 287 330 6,700 -1,400 Descending New York TRACON
Sat 01:35:21 AM 41.2167 -73.9833 118° Southeast 266 306 5,300 -1,100 Descending New York TRACON
Sat 01:36:21 AM 41.2167 -73.8833 90° East 247 284 4,500 -842 Descending New York TRACON
Sat 01:37:15 AM 41.2333 -73.8167 72° East 210 242 3,700 -889 Descending New York TRACON
Sat 01:40:00 AM 41.0667 -73.7000 166° South  Level FlightAware Approximate
Sat 01:47:00 AM 41.0669 -73.7076 166° South  Level Estimated
Sat 01:48:00 AM 41.0667 -73.7000 166° South  Level FlightAware Approximate

Login

Don't have an account? Register now (free) for customized features, flight alerts, and more!